Latest Weather Observations for Perth

IDW60801

Issued at 12:02 pm WST Sunday 2 August 2015 (issued every 30 minutes, with the page automatically refreshed every 10 minutes)

About weather observations | Map of weather stations | Latest weather observations for WA | Other Formats
Station Details ID: 009225 Name: PERTH METRO Lat: -31.92 Lon: 115.87 Height: 24.9 m
Data from the previous 72 hours. | See also: Recent months at Perth
Date/Time
WST
Temp
°C
App
Temp
°C
Dew
Point
Rel
Hum
%
Delta-T
°C
Wind Press
QNH
hPa
Press
MSL
hPa
Rain
since 9 am
mm
Dir
 
Spd
km/h
Gust
km/h
Spd
kts
Gust
kts
02/12:00pm 14.7 11.5 5.2 53 4.4 E 11 22 6 12 1033.6 1033.6 0.0
02/11:30am 14.0 10.6 4.0 51 4.5 E 11 17 6 9 1034.0 1034.0 0.0
02/11:00am 13.9 10.5 4.2 52 4.4 ESE 11 19 6 10 1034.3 1034.3 0.0
02/10:30am 13.0 9.2 3.9 54 4.1 SE 13 26 7 14 1034.3 1034.3 0.0
02/10:00am 12.6 9.8 5.1 60 3.4 SSE 9 15 5 8 1034.5 1034.5 0.0
02/09:30am 11.9 9.3 4.4 60 3.4 ESE 7 17 4 9 1034.3 1034.3 0.0
02/09:00am 11.3 8.9 5.4 67 2.7 ESE 7 11 4 6 1034.3 1034.3 0.0
02/08:30am 10.3 8.6 5.7 73 2.1 SE 4 11 2 6 1034.0 1034.0 0.0
02/08:00am 9.2 7.5 6.1 81 1.4 SE 4 7 2 4 1033.7 1033.7 0.0
02/07:30am 8.6 7.7 6.2 85 1.1 CALM 0 0 0 0 1033.3 1033.3 0.0
02/07:00am 8.4 6.8 6.2 86 1.0 SE 4 9 2 5 1032.9 1032.9 0.0
02/06:30am 8.4 7.5 6.2 86 1.0 CALM 0 0 0 0 1032.7 1032.7 0.0
02/06:00am 8.4 7.5 5.9 84 1.1 CALM 0 0 0 0 1032.0 1032.0 0.0
02/05:30am 8.4 7.4 5.7 83 1.2 CALM 0 0 0 0 1031.9 1031.9 0.0
02/05:00am 8.3 7.5 6.3 87 0.9 CALM 0 0 0 0 1032.0 1032.0 0.0
02/04:30am 8.2 7.2 5.8 85 1.1 CALM 0 0 0 0 1031.5 1031.5 0.0
02/04:00am 8.1 7.1 5.7 85 1.1 CALM 0 0 0 0 1031.3 1031.3 0.0
02/03:30am 7.9 7.0 6.0 88 0.9 CALM 0 0 0 0 1031.3 1031.3 0.0
02/03:00am 7.1 6.1 5.7 91 0.6 CALM 0 0 0 0 1031.2 1031.2 0.0
02/02:30am 6.4 5.3 5.0 91 0.6 CALM 0 0 0 0 1031.2 1031.2 0.0
02/02:00am 6.2 5.0 4.7 90 0.6 CALM 0 0 0 0 1031.2 1031.2 0.0
02/01:30am 6.4 4.5 4.9 90 0.7 SE 4 7 2 4 1031.0 1031.0 0.0
02/01:00am 6.2 4.3 4.8 91 0.6 SE 4 6 2 3 1031.1 1031.1 0.0
02/12:30am 6.3 5.1 4.8 90 0.7 CALM 0 0 0 0 1030.9 1030.9 0.0
02/12:00am 6.9 5.8 4.9 87 0.9 CALM 0 0 0 0 1030.9 1030.9 0.0
 
Date/Time
WST
Temp
°C
App
Temp
°C
Dew
Point
Rel
Hum
%
Delta-T
°C
Wind Press
QNH
hPa
Press
MSL
hPa
Rain
since 9 am
mm
Dir
 
Spd
km/h
Gust
km/h
Spd
kts
Gust
kts
01/11:30pm 7.1 6.0 4.9 86 1.0 CALM 0 0 0 0 1030.8 1030.8 0.0
01/11:00pm 7.7 6.2 5.2 84 1.1 SE 2 6 1 3 1030.5 1030.5 0.0
01/10:30pm 8.2 7.2 5.5 83 1.2 CALM 0 0 0 0 1030.4 1030.4 0.0
01/10:00pm 9.1 8.1 5.5 78 1.6 CALM 0 0 0 0 1030.3 1030.3 0.0
01/09:30pm 10.2 9.2 5.4 72 2.2 CALM 0 0 0 0 1030.2 1030.2 0.0
01/09:00pm 11.4 9.5 4.8 64 3.0 SE 4 7 2 4 1029.9 1029.9 0.0
01/08:30pm 12.4 9.9 4.9 60 3.4 ESE 7 13 4 7 1029.6 1029.6 0.0
01/08:00pm 13.1 10.2 4.8 57 3.8 ESE 9 17 5 9 1029.1 1029.1 0.0
01/07:30pm 13.6 10.8 5.0 56 4.0 ESE 9 15 5 8 1028.6 1028.6 0.0
01/07:00pm 13.9 11.4 5.0 55 4.1 ESE 7 17 4 9 1028.2 1028.2 0.0
01/06:30pm 14.2 11.4 5.3 55 4.2 ESE 9 17 5 9 1027.6 1027.6 0.0
01/06:00pm 14.4 11.2 5.2 54 4.3 ESE 11 19 6 10 1027.1 1027.1 0.0
01/05:30pm 14.8 11.2 5.1 52 4.6 SE 13 26 7 14 1026.7 1026.7 0.0
01/05:00pm 15.2 11.3 5.4 52 4.6 SE 15 24 8 13 1026.4 1026.4 0.0
01/04:30pm 15.6 12.7 6.3 54 4.5 ESE 11 22 6 12 1025.9 1025.9 0.0
01/04:00pm 15.8 12.9 6.5 54 4.5 SE 11 20 6 11 1025.5 1025.5 0.0
01/03:30pm 16.3 13.4 6.7 53 4.7 SE 11 22 6 12 1025.0 1025.0 0.0
01/03:00pm 16.6 13.5 7.3 54 4.6 ESE 13 20 7 11 1024.5 1024.5 0.0
01/02:30pm 17.3 14.2 7.1 51 5.1 SE 13 19 7 10 1024.3 1024.3 0.0
01/02:00pm 16.8 13.8 7.7 55 4.6 ESE 13 24 7 13 1024.1 1024.1 0.0
01/01:30pm 17.8 14.6 7.0 49 5.4 ESE 13 24 7 13 1023.9 1023.9 0.0
01/01:00pm 17.0 13.7 6.5 50 5.1 SE 13 26 7 14 1024.1 1024.1 0.0
01/12:30pm 17.1 13.9 6.9 51 5.1 ESE 13 24 7 13 1024.2 1024.2 0.0
01/12:00pm 16.8 13.0 6.0 49 5.2 ESE 15 26 8 14 1024.4 1024.4 0.0
01/11:30am 16.5 13.1 7.7 56 4.4 SE 15 32 8 17 1024.4 1024.4 0.0
01/11:00am 15.9 12.4 7.4 57 4.2 SE 15 28 8 15 1024.4 1024.4 0.0
01/10:30am 15.0 10.8 7.3 60 3.8 SE 19 30 10 16 1024.4 1024.4 0.0
01/10:00am 14.7 10.8 7.3 61 3.6 SE 17 28 9 15 1024.1 1024.1 0.0
01/09:30am 14.2 10.4 7.5 64 3.3 SE 17 28 9 15 1023.9 1023.9 0.0
01/09:00am 13.5 9.7 7.5 67 2.9 SE 17 28 9 15 1023.3 1023.3 0.2
01/08:30am 13.0 10.5 8.1 72 2.4 SSE 11 20 6 11 1022.7 1022.7 0.2
01/08:00am 12.7 9.6 7.2 69 2.7 SSE 13 24 7 13 1022.1 1022.1 0.2
01/07:30am 12.1 9.4 7.4 73 2.3 SSE 11 19 6 10 1021.3 1021.3 0.2
01/07:00am 11.9 9.2 7.2 73 2.3 SSE 11 19 6 10 1020.7 1020.7 0.2
01/06:30am 12.1 9.0 7.2 72 2.4 SSE 13 20 7 11 1020.0 1020.0 0.2
01/06:00am 12.2 9.1 7.3 72 2.4 SSE 13 24 7 13 1019.4 1019.4 0.2
01/05:30am 12.5 9.0 7.2 70 2.6 SSE 15 20 8 11 1019.1 1019.1 0.2
01/05:00am 12.8 9.7 7.3 69 2.7 SSE 13 24 7 13 1018.6 1018.6 0.2
01/04:30am 12.9 9.1 7.4 69 2.7 SSE 17 28 9 15 1018.3 1018.3 0.2
01/04:00am 12.8 9.8 7.7 71 2.5 SE 13 20 7 11 1018.0 1018.0 0.2
01/03:30am 12.7 9.8 8.0 73 2.3 SE 13 24 7 13 1017.5 1017.5 0.2
01/03:00am 12.7 9.8 8.0 73 2.3 SE 13 20 7 11 1017.3 1017.3 0.2
01/02:30am 13.0 9.3 8.1 72 2.4 SE 17 30 9 16 1017.3 1017.3 0.2
01/02:00am 13.0 9.8 8.3 73 2.3 SE 15 26 8 14 1017.0 1017.0 0.2
01/01:30am 13.2 10.1 8.7 74 2.3 SE 15 20 8 11 1017.0 1017.0 0.2
01/01:00am 13.3 10.2 8.8 74 2.3 SSE 15 24 8 13 1016.5 1016.5 0.2
01/12:30am 13.6 9.7 9.3 75 2.2 SE 20 37 11 20 1015.8 1015.8 0.2
01/12:00am 13.8 10.1 9.6 76 2.2 SSE 19 33 10 18 1015.4 1015.4 0.2
 
Date/Time
WST
Temp
°C
App
Temp
°C
Dew
Point
Rel
Hum
%
Delta-T
°C
Wind Press
QNH
hPa
Press
MSL
hPa
Rain
since 9 am
mm
Dir
 
Spd
km/h
Gust
km/h
Spd
kts
Gust
kts
31/11:30pm 14.0 11.2 10.0 77 2.1 SE 15 26 8 14 1015.1 1015.1 0.2
31/11:00pm 14.3 11.6 10.3 77 2.1 SE 15 24 8 13 1014.9 1014.9 0.2
31/10:30pm 14.8 12.3 11.0 78 2.0 SSE 15 24 8 13 1014.4 1014.4 0.2
31/10:00pm 15.1 13.9 11.5 79 1.9 SE 9 17 5 9 1014.0 1014.0 0.2
31/09:30pm 15.4 14.0 12.2 81 1.7 SSE 11 19 6 10 1013.6 1013.6 0.2
31/09:00pm 16.0 15.3 13.1 83 1.6 SSW 9 13 5 7 1013.4 1013.4 0.2
31/08:30pm 15.2 15.9 12.3 83 1.6 CALM 0 0 0 0 1013.2 1013.2 0.2
31/08:00pm 16.4 16.4 12.4 77 2.2 SW 4 7 2 4 1013.0 1013.0 0.2
31/07:30pm 17.0 15.9 12.1 73 2.7 SSW 9 15 5 8 1012.7 1012.7 0.2
31/07:00pm 17.2 15.8 12.1 72 2.8 SSW 11 17 6 9 1012.4 1012.3 0.2
31/06:30pm 17.0 16.6 12.3 74 2.6 SW 6 9 3 5 1011.9 1011.9 0.2
31/06:00pm 17.1 16.1 12.2 73 2.7 SW 9 13 5 7 1011.2 1011.2 0.2
31/05:30pm 17.5 17.1 12.4 72 2.8 SW 6 7 3 4 1011.1 1011.1 0.2
31/05:00pm 18.9 17.1 10.7 59 4.4 SW 11 17 6 9 1011.0 1011.0 0.2
31/04:30pm 20.0 19.0 12.3 61 4.3 SW 9 17 5 9 1010.8 1010.8 0.2
31/04:00pm 20.6 19.4 12.8 61 4.4 SW 11 17 6 9 1010.6 1010.6 0.2
31/03:30pm 20.8 19.2 11.7 56 5.1 SSW 11 19 6 10 1010.5 1010.5 0.2
31/03:00pm 20.6 18.9 12.6 60 4.5 SW 13 19 7 10 1010.7 1010.7 0.2
31/02:30pm 21.2 20.5 13.1 60 4.6 SSW 9 17 5 9 1010.6 1010.6 0.2
31/02:00pm 20.8 19.1 11.2 54 5.3 SSW 11 17 6 9 1010.8 1010.8 0.0
31/01:30pm 20.6 19.7 13.6 64 4.0 SSW 11 19 6 10 1010.9 1010.9 0.0
31/01:00pm 20.0 19.7 15.4 75 2.7 SSW 11 17 6 9 1011.7 1011.7 0.0
31/12:30pm 19.6 19.9 15.9 79 2.2 SW 9 15 5 8 1011.9 1011.9 0.0
31/12:00pm 19.3 18.9 16.2 82 1.9 SW 13 24 7 13 1011.7 1011.7 0.0
31/11:30am 19.3 20.4 16.7 85 1.6 SSE 6 7 3 4 1012.0 1012.0 0.0
31/11:00am 19.7 21.6 16.7 83 1.8 NNW 2 6 1 3 1012.6 1012.6 0.0
31/10:30am 19.2 20.6 17.3 89 1.2 NNW 6 9 3 5 1013.1 1013.1 0.0
31/10:00am 17.5 18.1 16.9 96 0.4 NNE 9 13 5 7 1013.5 1013.5 0.0
31/09:30am 17.1 18.3 16.8 98 0.2 NNE 6 9 3 5 1013.2 1013.2 0.0
31/09:00am 16.8 17.7 16.5 98 0.2 NNE 7 9 4 5 1013.4 1013.4 18.4
31/08:30am 16.8 17.6 16.3 97 0.3 N 7 13 4 7 1013.8 1013.8 18.4
31/08:00am 16.7 17.7 16.4 98 0.2 NNW 6 9 3 5 1013.2 1013.2 18.2
31/07:30am 16.6 17.4 16.3 98 0.2 NNW 7 13 4 7 1012.7 1012.7 18.2
31/07:00am 16.6 18.0 16.4 99 0.1 N 4 7 2 4 1012.8 1012.8 18.2
31/06:30am 16.5 17.8 16.2 98 0.2 N 4 11 2 6 1012.7 1012.7 18.2
31/06:00am 16.5 16.9 16.2 98 0.2 N 9 24 5 13 1012.1 1012.1 18.2
31/05:30am 16.4 16.3 15.9 97 0.3 N 11 19 6 10 1012.7 1012.7 17.0
31/05:00am 16.6 16.0 15.6 94 0.6 NNE 13 20 7 11 1012.0 1012.0 9.0
31/04:30am 16.5 16.2 15.5 94 0.6 NNE 11 20 6 11 1012.3 1012.2 8.8
31/04:00am 16.4 16.5 15.6 95 0.5 NNE 9 15 5 8 1012.8 1012.8 8.8
31/03:30am 16.4 16.1 15.4 94 0.6 NE 11 19 6 10 1012.5 1012.4 8.6
31/03:00am 16.5 16.2 15.4 93 0.6 NNE 11 19 6 10 1013.6 1013.6 8.2
31/02:30am 16.7 15.6 15.2 91 0.9 NNE 15 26 8 14 1013.8 1013.8 8.2
31/02:00am 16.5 15.1 15.5 94 0.6 NNE 17 30 9 16 1013.8 1013.8 8.2
31/01:30am 16.4 15.5 15.8 96 0.4 NNE 15 20 8 11 1013.8 1013.8 8.2
31/01:00am 16.2 14.9 15.7 97 0.3 NNE 17 26 9 14 1014.8 1014.8 8.2
31/12:30am 16.2 14.9 15.7 97 0.3 NNE 17 22 9 12 1014.7 1014.7 8.2
31/12:00am 15.9 14.9 15.6 98 0.2 NE 15 22 8 12 1015.3 1015.3 8.0
 
Date/Time
WST
Temp
°C
App
Temp
°C
Dew
Point
Rel
Hum
%
Delta-T
°C
Wind Press
QNH
hPa
Press
MSL
hPa
Rain
since 9 am
mm
Dir
 
Spd
km/h
Gust
km/h
Spd
kts
Gust
kts
30/11:30pm 15.8 15.9 15.5 98 0.2 NNE 9 17 5 9 1016.3 1016.3 8.0
30/11:00pm 15.9 15.6 15.4 97 0.3 NE 11 17 6 9 1016.5 1016.5 7.8
30/10:30pm 16.0 15.3 15.5 97 0.3 NE 13 20 7 11 1016.2 1016.2 7.2
30/10:00pm 16.1 16.2 15.6 97 0.3 NNE 9 13 5 7 1017.5 1017.5 7.2
30/09:30pm 16.2 16.4 15.7 97 0.3 NNE 9 20 5 11 1017.8 1017.8 7.2
30/09:00pm 16.2 14.8 15.6 96 0.3 N 17 30 9 16 1017.5 1017.5 5.8
30/08:30pm 16.6 15.2 15.6 94 0.6 N 17 26 9 14 1018.0 1018.0 3.4
30/08:00pm 16.8 14.8 15.5 92 0.8 N 20 37 11 20 1017.0 1017.0 2.2
30/07:30pm 16.8 14.9 15.8 94 0.6 NNE 20 33 11 18 1015.7 1015.7 1.6
30/07:00pm 17.2 15.5 15.7 91 0.9 N 19 39 10 21 1016.5 1016.5 1.2
30/06:30pm 18.6 17.0 14.9 79 2.2 NNW 17 32 9 17 1017.9 1017.9 0.4
30/06:00pm 18.5 17.4 14.4 77 2.4 N 13 20 7 11 1017.4 1017.4 0.4
30/05:30pm 18.4 16.2 14.3 77 2.4 NNE 19 28 10 15 1016.2 1016.2 0.4
30/05:00pm 18.6 17.5 14.3 76 2.5 N 13 24 7 13 1017.3 1017.3 0.4
30/04:30pm 18.5 18.3 14.6 78 2.3 NNE 9 13 5 7 1017.0 1017.0 0.4
30/04:00pm 19.0 19.5 15.5 80 2.1 N 7 13 4 7 1017.1 1017.1 0.4
30/03:30pm 19.2 19.2 15.3 78 2.3 NNE 9 17 5 9 1016.7 1016.7 0.4
30/03:00pm 19.3 18.9 15.2 77 2.4 N 11 19 6 10 1017.1 1017.1 0.4
30/02:30pm 19.4 19.6 15.7 79 2.2 NNE 9 17 5 9 1017.4 1017.4 0.4
30/02:00pm 19.8 20.0 15.7 77 2.4 N 9 17 5 9 1017.7 1017.7 0.4
30/01:30pm 20.0 19.4 15.6 76 2.6 NNE 13 22 7 12 1017.3 1017.3 0.4
30/01:00pm 20.0 19.5 16.0 78 2.4 NNE 13 26 7 14 1018.2 1018.2 0.4
30/12:30pm 19.2 20.1 17.5 90 1.0 NNE 9 15 5 8 1019.1 1019.1 0.4

Other Formats:

Comma delimited format used in spreadsheet applications
http://www.bom.gov.au/fwo/IDW60801/IDW60801.94608.axf

JavaScript Object Notation format (JSON) in row-major order
http://www.bom.gov.au/fwo/IDW60801/IDW60801.94608.json